createdAt,value
2023-11-06T00:00:40.372Z,9.04
2023-11-06T00:05:43.556Z,9.01
2023-11-06T00:10:46.598Z,8.97
2023-11-06T00:15:50.999Z,8.93
2023-11-06T00:20:54.060Z,8.95
2023-11-06T00:25:57.072Z,8.94
2023-11-06T00:31:01.476Z,8.94
2023-11-06T00:36:04.766Z,8.90
2023-11-06T00:41:07.951Z,8.88
2023-11-06T00:46:12.420Z,8.89
2023-11-06T00:51:15.453Z,8.84
2023-11-06T00:56:20.333Z,8.84
2023-11-06T01:01:24.957Z,8.82
2023-11-06T01:06:27.941Z,8.85
2023-11-06T01:11:31.585Z,8.81
2023-11-06T01:16:36.079Z,8.81
2023-11-06T01:21:39.139Z,8.86
2023-11-06T01:26:43.959Z,8.88
2023-11-06T01:31:49.005Z,8.89
2023-11-06T01:36:52.034Z,8.94
2023-11-06T01:41:55.054Z,8.95
2023-11-06T01:47:00.312Z,8.90
2023-11-06T01:52:03.621Z,8.85
2023-11-06T01:57:07.483Z,8.80
2023-11-06T02:02:12.598Z,8.81
2023-11-06T02:07:40.668Z,8.79
2023-11-06T02:12:43.616Z,8.77
2023-11-06T02:17:48.259Z,8.76
2023-11-06T02:22:53.993Z,8.76
2023-11-06T02:27:58.391Z,8.75
2023-11-06T02:33:01.361Z,8.73
2023-11-06T02:38:04.468Z,8.71
2023-11-06T02:43:09.350Z,8.70
2023-11-06T02:48:12.616Z,8.67
2023-11-06T02:53:15.702Z,8.63
2023-11-06T02:58:20.219Z,8.62
2023-11-06T03:03:23.289Z,8.61
2023-11-06T03:08:26.333Z,8.60
2023-11-06T03:13:30.703Z,8.59
2023-11-06T03:18:33.732Z,8.61
2023-11-06T03:23:36.738Z,8.59
2023-11-06T03:28:42.130Z,8.56
2023-11-06T03:33:45.667Z,8.55
2023-11-06T03:38:48.710Z,8.55
2023-11-06T03:43:53.608Z,8.53
2023-11-06T03:48:56.943Z,8.51
2023-11-06T03:54:00.017Z,8.49
2023-11-06T03:59:04.417Z,8.48
2023-11-06T04:04:08.122Z,8.46
2023-11-06T04:09:11.172Z,8.47
2023-11-06T04:14:15.509Z,8.46
2023-11-06T04:19:18.631Z,8.39
2023-11-06T04:24:21.708Z,8.40
2023-11-06T04:29:26.248Z,8.40
2023-11-06T04:34:29.315Z,8.39
2023-11-06T04:39:32.248Z,8.38
2023-11-06T04:44:36.782Z,8.40
2023-11-06T04:49:40.140Z,8.37
2023-11-06T04:54:43.691Z,8.34
2023-11-06T04:59:48.146Z,8.33
2023-11-06T05:04:51.179Z,8.33
2023-11-06T05:09:54.272Z,8.36
2023-11-06T05:14:58.607Z,8.36
2023-11-06T05:20:01.817Z,8.37
2023-11-06T05:25:05.183Z,8.41
2023-11-06T05:30:11.863Z,8.42
2023-11-06T05:35:16.100Z,8.39
2023-11-06T05:40:19.379Z,8.31
2023-11-06T05:45:23.879Z,8.33
2023-11-06T05:50:26.917Z,8.31
2023-11-06T05:55:35.620Z,8.28
2023-11-06T06:00:42.121Z,8.18
2023-11-06T06:05:45.519Z,8.22
2023-11-06T06:10:48.615Z,8.22
2023-11-06T06:15:53.003Z,8.23
2023-11-06T06:20:56.148Z,8.22
2023-11-06T06:25:59.220Z,8.22
2023-11-06T06:31:03.671Z,8.22
2023-11-06T06:36:12.026Z,8.21
2023-11-06T06:41:15.417Z,8.20
2023-11-06T06:46:19.750Z,8.19
2023-11-06T06:51:22.818Z,8.20
2023-11-06T06:56:26.007Z,8.19
2023-11-06T07:01:30.441Z,8.17
2023-11-06T07:06:34.610Z,8.16
2023-11-06T07:11:37.737Z,8.17
2023-11-06T07:16:42.328Z,8.18
2023-11-06T07:21:45.384Z,8.19
2023-11-06T07:26:48.431Z,8.28
2023-11-06T07:31:54.163Z,8.34
2023-11-06T07:36:57.400Z,8.35
2023-11-06T07:42:00.523Z,8.41
2023-11-06T07:47:06.066Z,8.42
2023-11-06T07:52:11.334Z,8.45
2023-11-06T07:57:14.472Z,8.49
2023-11-06T08:02:18.945Z,8.54
2023-11-06T08:07:24.240Z,8.57
2023-11-06T08:12:27.673Z,8.65
2023-11-06T08:17:32.240Z,8.86
2023-11-06T08:22:35.435Z,8.95
2023-11-06T08:27:38.541Z,8.96
2023-11-06T08:32:43.166Z,8.96
2023-11-06T08:37:47.204Z,8.97
2023-11-06T08:42:50.273Z,9.21
2023-11-06T08:47:54.806Z,9.48
2023-11-06T08:52:58.470Z,9.68
2023-11-06T08:58:01.521Z,9.82
2023-11-06T09:03:05.939Z,9.91
2023-11-06T09:08:09.058Z,10.17
2023-11-06T09:13:13.868Z,10.06
2023-11-06T09:18:20.908Z,10.11
2023-11-06T09:23:24.159Z,10.35
2023-11-06T09:28:27.228Z,10.71
2023-11-06T09:33:31.817Z,10.93
2023-11-06T09:38:35.179Z,10.84
2023-11-06T09:43:39.849Z,11.05
2023-11-06T09:48:44.973Z,11.30
2023-11-06T09:53:48.651Z,11.46
2023-11-06T09:58:52.622Z,11.63
2023-11-06T10:03:57.894Z,11.56
2023-11-06T10:09:03.730Z,11.56
2023-11-06T10:14:06.838Z,11.80
2023-11-06T10:19:14.122Z,11.78
2023-11-06T10:24:17.442Z,11.98
2023-11-06T10:29:21.958Z,12.33
2023-11-06T10:34:32.623Z,12.39
2023-11-06T10:39:36.067Z,12.20
2023-11-06T10:44:40.148Z,11.94
2023-11-06T10:49:52.642Z,12.00
2023-11-06T10:54:57.797Z,12.12
2023-11-06T11:00:02.664Z,12.09
2023-11-06T11:05:12.749Z,12.04
2023-11-06T11:10:19.464Z,12.06
2023-11-06T11:15:26.689Z,11.88
2023-11-06T11:20:52.284Z,11.89
2023-11-06T11:25:59.651Z,11.78
2023-11-06T11:31:34.401Z,11.72
2023-11-06T11:36:40.076Z,11.80
2023-11-06T11:42:16.379Z,11.95
2023-11-06T11:47:19.434Z,12.00
2023-11-06T11:52:46.214Z,11.90
2023-11-06T11:57:49.407Z,11.75
2023-11-06T12:03:07.355Z,11.68
2023-11-06T12:08:19.923Z,11.68
2023-11-06T12:13:25.063Z,11.64
2023-11-06T12:18:28.895Z,11.59
2023-11-06T12:23:34.800Z,11.58
2023-11-06T12:28:43.889Z,11.68
2023-11-06T12:33:47.309Z,11.68
2023-11-06T12:38:52.904Z,11.69
2023-11-06T12:43:56.086Z,11.69
2023-11-06T12:49:04.763Z,11.79
2023-11-06T12:54:14.012Z,11.80
2023-11-06T12:59:17.208Z,11.76
2023-11-06T13:04:20.321Z,11.79
2023-11-06T13:09:25.569Z,11.81
2023-11-06T13:14:29.039Z,11.94
2023-11-06T13:19:33.413Z,12.14
2023-11-06T13:24:38.082Z,12.27
2023-11-06T13:29:41.196Z,12.38
2023-11-06T13:34:45.871Z,12.41
2023-11-06T13:39:50.722Z,12.45
2023-11-06T13:44:53.757Z,12.43
2023-11-06T13:49:56.879Z,12.63
2023-11-06T13:55:02.173Z,12.67
2023-11-06T14:00:26.665Z,12.79
2023-11-06T14:05:35.206Z,12.67
2023-11-06T14:10:44.224Z,12.43
2023-11-06T14:15:51.793Z,12.35
2023-11-06T14:20:56.706Z,12.22
2023-11-06T14:26:01.512Z,12.18
2023-11-06T14:31:06.039Z,12.15
2023-11-06T14:36:10.584Z,12.24
2023-11-06T14:41:15.751Z,12.21
2023-11-06T14:46:40.582Z,12.14
2023-11-06T14:52:00.295Z,12.08
2023-11-06T14:57:04.039Z,12.21
2023-11-06T15:02:07.863Z,12.18
2023-11-06T15:07:12.921Z,12.04
2023-11-06T15:12:16.476Z,12.11
2023-11-06T15:17:19.584Z,12.03
2023-11-06T15:22:26.084Z,11.99
2023-11-06T15:27:33.190Z,11.95
2023-11-06T15:32:36.387Z,11.84
2023-11-06T15:37:41.807Z,11.69
2023-11-06T15:42:45.974Z,11.56
2023-11-06T15:47:49.518Z,11.43
2023-11-06T15:52:54.753Z,11.30
2023-11-06T15:57:58.050Z,11.16
2023-11-06T16:03:02.087Z,11.08
2023-11-06T16:08:07.003Z,10.96
2023-11-06T16:13:10.159Z,10.87
2023-11-06T16:18:17.128Z,10.75
2023-11-06T16:23:22.137Z,10.66
2023-11-06T16:28:25.204Z,10.58
2023-11-06T16:33:28.276Z,10.46
2023-11-06T16:38:32.950Z,10.42
2023-11-06T16:43:36.410Z,10.37
2023-11-06T16:48:42.310Z,10.33
2023-11-06T16:53:47.001Z,10.26
2023-11-06T16:58:53.928Z,10.22
2023-11-06T17:03:58.999Z,10.16
2023-11-06T17:09:04.178Z,10.09
2023-11-06T17:14:07.267Z,10.04
2023-11-06T17:19:11.062Z,9.96
2023-11-06T17:24:15.611Z,9.89
2023-11-06T17:29:19.037Z,9.87
2023-11-06T17:34:23.721Z,9.83
2023-11-06T17:39:28.433Z,9.81
2023-11-06T17:44:31.620Z,9.76
2023-11-06T17:49:34.620Z,9.72
2023-11-06T17:54:39.012Z,9.69
2023-11-06T17:59:42.649Z,9.65
2023-11-06T18:04:45.687Z,9.64
2023-11-06T18:09:50.064Z,9.60
2023-11-06T18:14:54.433Z,9.59
2023-11-06T18:20:02.883Z,9.53
2023-11-06T18:25:09.807Z,9.51
2023-11-06T18:30:14.254Z,9.48
2023-11-06T18:35:23.542Z,9.43
2023-11-06T18:40:44.681Z,9.36
2023-11-06T18:45:47.725Z,9.38
2023-11-06T18:50:51.064Z,9.38
2023-11-06T18:55:55.553Z,9.28
2023-11-06T19:00:58.781Z,9.28
2023-11-06T19:06:05.480Z,9.29
2023-11-06T19:11:12.346Z,9.28
2023-11-06T19:16:15.353Z,9.24
2023-11-06T19:21:19.496Z,9.21
2023-11-06T19:26:25.345Z,9.17
2023-11-06T19:31:28.971Z,9.13
2023-11-06T19:36:32.113Z,9.15
2023-11-06T19:41:36.818Z,9.08
2023-11-06T19:46:42.847Z,9.09
2023-11-06T19:51:45.970Z,9.08
2023-11-06T19:56:50.673Z,9.03
2023-11-06T20:01:53.771Z,9.03
2023-11-06T20:06:56.921Z,9.00
2023-11-06T20:12:01.833Z,8.95
2023-11-06T20:17:06.032Z,8.96
2023-11-06T20:22:09.430Z,8.93
2023-11-06T20:27:13.934Z,8.92
2023-11-06T20:32:17.154Z,8.90
2023-11-06T20:37:22.033Z,8.83
2023-11-06T20:42:26.552Z,8.83
2023-11-06T20:47:30.588Z,8.85
2023-11-06T20:52:33.790Z,8.84
2023-11-06T20:57:41.336Z,8.83
2023-11-06T21:02:44.531Z,8.78
2023-11-06T21:07:47.798Z,8.78
2023-11-06T21:12:52.885Z,8.76
2023-11-06T21:17:56.092Z,8.72
2023-11-06T21:22:59.232Z,8.70
2023-11-06T21:28:04.385Z,8.66
2023-11-06T21:33:07.805Z,8.67
2023-11-06T21:38:12.387Z,8.65
2023-11-06T21:43:16.787Z,8.64
2023-11-06T21:48:20.069Z,8.63
2023-11-06T21:53:23.110Z,8.63
2023-11-06T21:58:30.270Z,8.61
2023-11-06T22:03:33.899Z,8.61
2023-11-06T22:08:38.850Z,8.60
2023-11-06T22:13:43.538Z,8.56
2023-11-06T22:18:46.580Z,8.55
2023-11-06T22:23:52.455Z,8.56
2023-11-06T22:28:58.135Z,8.54
2023-11-06T22:34:02.323Z,8.54
2023-11-06T22:39:06.955Z,8.55
2023-11-06T22:44:11.593Z,8.57
2023-11-06T22:49:14.948Z,8.55
2023-11-06T22:54:18.031Z,8.55
2023-11-06T22:59:22.570Z,8.54
2023-11-06T23:04:25.851Z,8.52
2023-11-06T23:09:29.679Z,8.44
2023-11-06T23:14:34.376Z,8.45
2023-11-06T23:19:37.519Z,8.44
2023-11-06T23:24:40.518Z,8.44
2023-11-06T23:30:08.573Z,8.42
2023-11-06T23:35:18.468Z,8.40
2023-11-06T23:40:21.721Z,8.41
2023-11-06T23:45:27.531Z,8.37
2023-11-06T23:50:30.581Z,8.38
2023-11-06T23:55:33.585Z,8.34
